createdAt,value
2022-12-28T00:01:34.469Z,17.98
2022-12-28T00:03:36.123Z,21.10
2022-12-28T00:05:37.647Z,18.20
2022-12-28T00:07:39.337Z,20.75
2022-12-28T00:09:40.961Z,24.13
2022-12-28T00:11:42.514Z,20.10
2022-12-28T00:13:44.411Z,24.08
2022-12-28T00:15:45.952Z,38.35
2022-12-28T00:17:47.587Z,24.85
2022-12-28T00:19:49.155Z,24.48
2022-12-28T00:21:53.613Z,24.88
2022-12-28T00:23:57.527Z,19.80
2022-12-28T00:26:11.465Z,24.88
2022-12-28T00:28:12.976Z,23.85
2022-12-28T00:30:14.508Z,22.00
2022-12-28T00:32:16.026Z,22.17
2022-12-28T00:34:17.686Z,21.90
2022-12-28T00:36:19.281Z,43.13
2022-12-28T00:38:20.938Z,29.48
2022-12-28T00:40:24.222Z,28.83
2022-12-28T00:42:25.960Z,23.05
2022-12-28T00:44:27.587Z,24.95
2022-12-28T00:46:29.118Z,26.90
2022-12-28T00:48:30.819Z,42.88
2022-12-28T00:50:32.363Z,30.15
2022-12-28T00:52:33.999Z,17.98
2022-12-28T00:54:35.581Z,20.23
2022-12-28T00:56:37.238Z,23.45
2022-12-28T00:58:38.818Z,19.88
2022-12-28T01:00:40.414Z,22.42
2022-12-28T01:02:42.073Z,26.45
2022-12-28T01:04:43.658Z,23.38
2022-12-28T01:06:45.182Z,22.55
2022-12-28T01:08:47.246Z,21.70
2022-12-28T01:10:48.838Z,18.83
2022-12-28T01:12:50.331Z,18.52
2022-12-28T01:14:51.865Z,17.42
2022-12-28T01:16:53.443Z,20.45
2022-12-28T01:18:57.572Z,23.88
2022-12-28T01:20:59.115Z,24.63
2022-12-28T01:23:00.687Z,18.50
2022-12-28T01:25:02.195Z,19.48
2022-12-28T01:27:03.805Z,17.98
2022-12-28T01:29:05.318Z,25.65
2022-12-28T01:31:09.762Z,15.75
2022-12-28T01:33:11.469Z,21.13
2022-12-28T01:35:13.017Z,19.10
2022-12-28T01:37:14.534Z,18.63
2022-12-28T01:39:16.150Z,17.65
2022-12-28T01:41:19.317Z,15.95
2022-12-28T01:43:34.825Z,18.52
2022-12-28T01:45:36.443Z,17.52
2022-12-28T01:47:38.182Z,20.52
2022-12-28T01:49:46.317Z,21.95
2022-12-28T01:52:13.241Z,22.35
2022-12-28T01:54:15.353Z,22.70
2022-12-28T01:56:17.301Z,21.10
2022-12-28T01:58:24.042Z,23.63
2022-12-28T02:00:26.956Z,21.50
2022-12-28T02:02:30.239Z,24.50
2022-12-28T02:04:31.993Z,18.58
2022-12-28T02:06:33.669Z,21.35
2022-12-28T02:08:42.993Z,19.73
2022-12-28T02:10:46.248Z,23.55
2022-12-28T02:12:47.969Z,20.77
2022-12-28T02:14:49.699Z,20.73
2022-12-28T02:16:53.207Z,16.67
2022-12-28T02:18:55.280Z,21.83
2022-12-28T02:21:31.185Z,19.48
2022-12-28T02:23:54.292Z,19.42
2022-12-28T02:26:21.522Z,18.23
2022-12-28T02:28:41.718Z,17.30
2022-12-28T02:31:07.507Z,20.92
2022-12-28T02:33:18.953Z,17.67
2022-12-28T02:35:58.638Z,20.95
2022-12-28T02:38:12.321Z,21.48
2022-12-28T02:40:22.645Z,22.45
2022-12-28T02:42:26.564Z,25.30
2022-12-28T02:44:46.313Z,25.45
2022-12-28T02:47:26.002Z,30.92
2022-12-28T02:49:47.403Z,32.47
2022-12-28T02:52:03.626Z,31.42
2022-12-28T02:54:43.376Z,33.60
2022-12-28T02:56:55.864Z,36.22
2022-12-28T02:59:15.991Z,34.00
2022-12-28T03:01:35.534Z,31.45
2022-12-28T03:06:19.562Z,37.15
2022-12-28T03:08:36.475Z,32.90
2022-12-28T03:10:50.135Z,35.33
2022-12-28T03:12:51.580Z,35.72
2022-12-28T03:15:08.252Z,38.63
2022-12-28T03:17:29.502Z,34.47
2022-12-28T03:19:54.468Z,40.13
2022-12-28T03:22:16.320Z,42.17
2022-12-28T03:24:38.237Z,39.17
2022-12-28T03:27:03.952Z,41.40
2022-12-28T03:29:27.551Z,41.33
2022-12-28T03:31:31.052Z,41.55
2022-12-28T03:33:36.205Z,47.92
2022-12-28T03:36:03.658Z,48.42
2022-12-28T03:38:05.416Z,37.03
2022-12-28T03:40:17.855Z,40.42
2022-12-28T03:42:51.388Z,45.15
2022-12-28T03:44:59.090Z,37.75
2022-12-28T03:47:13.802Z,37.90
2022-12-28T03:49:15.663Z,33.17
2022-12-28T03:51:21.770Z,37.22
2022-12-28T03:53:29.024Z,36.25
2022-12-28T03:55:30.928Z,36.75
2022-12-28T03:57:32.463Z,37.80
2022-12-28T03:59:34.785Z,41.00
2022-12-28T04:01:36.557Z,37.97
2022-12-28T04:03:38.338Z,41.83
2022-12-28T04:05:39.871Z,43.78
2022-12-28T04:07:41.522Z,44.42
2022-12-28T04:09:43.007Z,46.28
2022-12-28T04:11:44.543Z,43.03
2022-12-28T04:13:46.090Z,53.55
2022-12-28T04:16:02.357Z,76.88
2022-12-28T04:18:04.068Z,54.72
2022-12-28T04:20:06.224Z,65.90
2022-12-28T04:22:07.807Z,59.03
2022-12-28T04:24:09.384Z,50.45
2022-12-28T04:26:13.390Z,46.05
2022-12-28T04:28:14.935Z,45.92
2022-12-28T04:30:16.589Z,42.58
2022-12-28T04:32:18.144Z,44.92
2022-12-28T04:34:19.946Z,48.65
2022-12-28T04:36:21.472Z,42.13
2022-12-28T04:38:22.980Z,51.78
2022-12-28T04:40:24.539Z,73.28
2022-12-28T04:42:26.272Z,46.33
2022-12-28T04:44:27.858Z,42.97
2022-12-28T04:46:29.492Z,42.55
2022-12-28T04:48:31.461Z,42.70
2022-12-28T04:50:33.040Z,39.60
2022-12-28T04:52:34.585Z,44.53
2022-12-28T04:54:36.107Z,40.25
2022-12-28T04:56:37.646Z,36.10
2022-12-28T04:58:39.713Z,35.03
2022-12-28T05:00:41.707Z,36.75
2022-12-28T05:02:46.383Z,38.20
2022-12-28T05:04:48.103Z,40.50
2022-12-28T05:06:49.759Z,46.70
2022-12-28T05:08:51.783Z,62.95
2022-12-28T05:10:53.443Z,43.97
2022-12-28T05:12:56.019Z,46.10
2022-12-28T05:14:57.569Z,36.08
2022-12-28T05:16:59.121Z,36.53
2022-12-28T05:19:00.699Z,36.47
2022-12-28T05:21:07.014Z,39.13
2022-12-28T05:23:08.605Z,37.70
2022-12-28T05:25:10.175Z,39.30
2022-12-28T05:27:11.673Z,36.63
2022-12-28T05:29:13.182Z,38.33
2022-12-28T05:31:17.419Z,35.88
2022-12-28T05:33:19.292Z,34.38
2022-12-28T05:35:20.812Z,34.13
2022-12-28T05:37:22.523Z,42.65
2022-12-28T05:39:24.568Z,50.40
2022-12-28T05:41:28.395Z,58.65
2022-12-28T05:43:30.562Z,54.03
2022-12-28T05:45:32.082Z,44.25
2022-12-28T05:47:33.649Z,40.15
2022-12-28T05:49:35.229Z,55.20
2022-12-28T05:51:39.567Z,59.03
2022-12-28T05:53:42.169Z,56.63
2022-12-28T05:55:43.739Z,44.17
2022-12-28T05:57:45.246Z,50.47
2022-12-28T05:59:46.750Z,45.08
2022-12-28T06:01:48.423Z,42.13
2022-12-28T06:03:54.963Z,42.72
2022-12-28T06:05:56.555Z,45.40
2022-12-28T06:08:00.077Z,51.03
2022-12-28T06:10:02.567Z,45.75
2022-12-28T06:12:04.847Z,47.53
2022-12-28T06:14:06.757Z,44.50
2022-12-28T06:16:10.646Z,99.80
2022-12-28T06:18:12.175Z,132.88
2022-12-28T06:20:13.687Z,138.70
2022-12-28T06:22:15.271Z,76.03
2022-12-28T06:24:18.976Z,55.78
2022-12-28T06:26:21.921Z,47.80
2022-12-28T06:28:23.550Z,42.65
2022-12-28T06:30:25.153Z,43.40
2022-12-28T06:32:26.695Z,44.70
2022-12-28T06:34:28.420Z,51.20
2022-12-28T06:36:33.411Z,46.28
2022-12-28T06:38:34.980Z,48.90
2022-12-28T06:41:11.170Z,44.55
2022-12-28T06:42:59.274Z,38.30
2022-12-28T06:45:00.794Z,39.92
2022-12-28T06:47:02.284Z,37.72
2022-12-28T06:49:04.057Z,42.10
2022-12-28T06:51:14.391Z,38.58
2022-12-28T06:53:15.962Z,37.85
2022-12-28T06:55:17.485Z,40.53
2022-12-28T06:57:19.537Z,34.47
2022-12-28T06:59:21.084Z,37.53
2022-12-28T07:01:26.849Z,40.40
2022-12-28T07:03:28.457Z,40.95
2022-12-28T07:05:31.679Z,45.47
2022-12-28T07:07:33.265Z,42.60
2022-12-28T07:09:34.775Z,42.65
2022-12-28T07:11:36.939Z,37.75
2022-12-28T07:13:39.122Z,37.50
2022-12-28T07:15:40.679Z,37.13
2022-12-28T07:17:42.192Z,31.88
2022-12-28T07:19:43.793Z,34.72
2022-12-28T07:21:45.386Z,37.38
2022-12-28T07:23:47.517Z,28.60
2022-12-28T07:25:49.039Z,31.67
2022-12-28T07:27:50.614Z,26.55
2022-12-28T07:29:52.154Z,22.90
2022-12-28T07:31:53.749Z,23.38
2022-12-28T07:33:56.599Z,22.13
2022-12-28T07:35:58.757Z,22.30
2022-12-28T07:38:00.295Z,23.58
2022-12-28T07:40:01.891Z,21.73
2022-12-28T07:42:06.717Z,36.38
2022-12-28T07:44:08.241Z,28.05
2022-12-28T07:46:15.415Z,26.20
2022-12-28T07:48:16.972Z,23.75
2022-12-28T07:50:18.551Z,24.08
2022-12-28T07:52:20.092Z,26.90
2022-12-28T07:54:21.626Z,25.83
2022-12-28T07:56:24.978Z,17.77
2022-12-28T07:58:32.703Z,20.05
2022-12-28T08:00:34.582Z,18.77
2022-12-28T08:02:36.193Z,47.58
2022-12-28T08:04:37.723Z,24.15
2022-12-28T08:06:42.223Z,25.40
2022-12-28T08:08:45.536Z,19.55
2022-12-28T08:11:02.731Z,12.45
2022-12-28T08:13:13.177Z,17.98
2022-12-28T08:15:15.001Z,15.55
2022-12-28T08:17:20.925Z,14.30
2022-12-28T08:19:22.919Z,19.50
2022-12-28T08:21:36.422Z,14.38
2022-12-28T08:23:38.103Z,20.42
2022-12-28T08:25:39.642Z,18.35
2022-12-28T08:27:50.740Z,11.80
2022-12-28T08:29:52.428Z,16.27
2022-12-28T08:31:54.023Z,20.95
2022-12-28T08:33:57.284Z,23.67
2022-12-28T08:35:58.879Z,14.02
2022-12-28T08:38:00.464Z,14.35
2022-12-28T08:40:02.446Z,17.73
2022-12-28T08:42:04.073Z,15.98
2022-12-28T08:44:06.333Z,12.55
2022-12-28T08:46:12.280Z,17.42
2022-12-28T08:48:14.208Z,13.95
2022-12-28T08:50:26.515Z,19.73
2022-12-28T08:52:37.059Z,17.55
2022-12-28T08:54:51.335Z,18.20
2022-12-28T08:56:54.103Z,13.40
2022-12-28T08:58:57.024Z,13.70
2022-12-28T09:01:12.991Z,15.75
2022-12-28T09:03:14.886Z,11.05
2022-12-28T09:05:16.537Z,12.30
2022-12-28T09:07:18.067Z,13.35
2022-12-28T09:09:40.017Z,18.38
2022-12-28T09:11:48.639Z,20.17
2022-12-28T09:14:04.403Z,10.98
2022-12-28T09:16:18.867Z,12.25
2022-12-28T09:18:31.029Z,10.52
2022-12-28T09:20:32.620Z,14.00
2022-12-28T09:22:34.187Z,9.75
2022-12-28T09:24:35.731Z,14.80
2022-12-28T09:26:38.681Z,13.30
2022-12-28T09:28:45.485Z,10.75
2022-12-28T09:30:56.018Z,17.38
2022-12-28T09:33:17.715Z,12.27
2022-12-28T09:35:25.387Z,12.98
2022-12-28T09:37:27.299Z,9.43
2022-12-28T09:39:29.367Z,11.55
2022-12-28T09:41:55.495Z,17.70
2022-12-28T09:44:29.502Z,15.75
2022-12-28T09:46:42.809Z,17.77
2022-12-28T09:48:58.431Z,15.73
2022-12-28T09:51:00.242Z,12.30
2022-12-28T09:53:04.463Z,11.27
2022-12-28T09:55:12.444Z,10.63
2022-12-28T09:57:16.903Z,12.45
2022-12-28T09:59:26.152Z,13.90
2022-12-28T10:01:27.923Z,14.07
2022-12-28T10:03:37.345Z,16.90
2022-12-28T10:05:39.130Z,15.40
2022-12-28T10:07:40.742Z,12.82
2022-12-28T10:09:42.438Z,14.73
2022-12-28T10:11:44.534Z,13.95
2022-12-28T10:13:56.552Z,14.95
2022-12-28T10:15:58.482Z,14.57
2022-12-28T10:18:00.292Z,17.02
2022-12-28T10:20:01.949Z,9.05
2022-12-28T10:22:24.833Z,10.57
2022-12-28T10:24:31.722Z,9.68
2022-12-28T10:26:34.971Z,14.25
2022-12-28T10:28:49.461Z,13.32
2022-12-28T10:31:06.875Z,17.75
2022-12-28T10:33:15.582Z,15.02
2022-12-28T10:35:30.415Z,15.60
2022-12-28T10:37:36.968Z,16.08
2022-12-28T10:39:38.748Z,19.73
2022-12-28T10:41:41.334Z,14.57
2022-12-28T10:44:03.468Z,22.58
2022-12-28T10:46:23.481Z,11.98
2022-12-28T10:48:39.703Z,15.77
2022-12-28T10:50:55.151Z,16.33
2022-12-28T10:53:07.789Z,14.93
2022-12-28T10:55:31.366Z,11.90
2022-12-28T10:58:03.190Z,13.95
2022-12-28T11:00:23.067Z,16.60
2022-12-28T11:02:32.876Z,18.38
2022-12-28T11:04:34.651Z,15.60
2022-12-28T11:06:50.858Z,14.75
2022-12-28T11:09:03.972Z,21.10
2022-12-28T11:11:19.440Z,18.02
2022-12-28T11:13:27.429Z,17.15
2022-12-28T11:15:46.974Z,20.27
2022-12-28T11:18:07.158Z,17.08
2022-12-28T11:20:18.180Z,46.17
2022-12-28T11:22:28.512Z,32.17
2022-12-28T11:24:34.727Z,19.63
2022-12-28T11:26:42.975Z,26.38
2022-12-28T11:28:46.165Z,21.70
2022-12-28T11:30:49.483Z,18.65
2022-12-28T11:33:00.425Z,15.93
2022-12-28T11:35:02.705Z,14.02
2022-12-28T11:37:04.319Z,16.45
2022-12-28T11:39:27.671Z,11.57
2022-12-28T11:41:46.995Z,15.65
2022-12-28T11:44:00.939Z,20.60
2022-12-28T11:46:06.788Z,27.23
2022-12-28T11:48:42.353Z,28.10
2022-12-28T11:50:53.910Z,27.88
2022-12-28T11:52:55.403Z,39.30
2022-12-28T11:55:23.746Z,25.23
2022-12-28T11:57:39.416Z,19.40
2022-12-28T11:59:40.962Z,24.52
2022-12-28T12:02:08.883Z,18.33
2022-12-28T12:04:35.120Z,27.75
2022-12-28T12:06:42.725Z,44.40
2022-12-28T12:08:49.812Z,42.75
2022-12-28T12:11:27.609Z,35.53
2022-12-28T12:13:29.897Z,29.08
2022-12-28T12:15:37.616Z,29.13
2022-12-28T12:18:04.267Z,30.58
2022-12-28T12:20:15.399Z,23.80
2022-12-28T12:22:35.239Z,36.17
2022-12-28T12:24:45.936Z,33.03
2022-12-28T12:26:55.368Z,34.80
2022-12-28T12:29:04.790Z,35.20
2022-12-28T12:31:15.438Z,27.13
2022-12-28T12:33:26.917Z,22.73
2022-12-28T12:35:49.945Z,25.77
2022-12-28T12:38:20.656Z,22.25
2022-12-28T12:40:43.435Z,30.92
2022-12-28T12:43:09.639Z,21.80
2022-12-28T12:45:23.424Z,22.70
2022-12-28T12:47:39.314Z,33.45
2022-12-28T12:49:46.661Z,30.27
2022-12-28T12:52:14.358Z,25.88
2022-12-28T12:54:16.032Z,23.65
2022-12-28T12:57:12.807Z,20.70
2022-12-28T12:59:37.197Z,20.35
2022-12-28T13:01:53.185Z,18.98
2022-12-28T13:03:59.817Z,27.02
2022-12-28T13:06:05.886Z,17.65
2022-12-28T13:08:34.599Z,18.58
2022-12-28T13:10:40.587Z,14.75
2022-12-28T13:12:45.380Z,17.67
2022-12-28T13:14:51.367Z,15.55
2022-12-28T13:16:56.131Z,22.85
2022-12-28T13:19:01.029Z,19.55
2022-12-28T13:21:10.557Z,28.73
2022-12-28T13:23:17.183Z,27.60
2022-12-28T13:25:25.989Z,25.05
2022-12-28T13:27:34.897Z,24.73
2022-12-28T13:29:52.383Z,34.00
2022-12-28T13:31:57.513Z,31.33
2022-12-28T13:34:02.505Z,40.75
2022-12-28T13:36:05.482Z,41.75
2022-12-28T13:38:14.248Z,56.47
2022-12-28T13:40:16.773Z,73.88
2022-12-28T13:42:23.579Z,102.82
2022-12-28T13:44:31.587Z,57.88
2022-12-28T13:46:36.591Z,23.33
2022-12-28T13:48:44.258Z,24.95
2022-12-28T13:50:46.213Z,29.23
2022-12-28T13:52:52.080Z,27.20
2022-12-28T13:54:58.560Z,28.33
2022-12-28T13:57:20.907Z,28.30
2022-12-28T13:59:22.811Z,27.88
2022-12-28T14:01:30.388Z,46.22
2022-12-28T14:03:37.685Z,34.28
2022-12-28T14:05:55.173Z,23.38
2022-12-28T14:08:02.592Z,30.02
2022-12-28T14:10:04.763Z,36.83
2022-12-28T14:12:06.483Z,27.98
2022-12-28T14:14:10.298Z,29.33
2022-12-28T14:16:12.234Z,23.30
2022-12-28T14:18:17.123Z,22.45
2022-12-28T14:20:25.015Z,22.00
2022-12-28T14:22:41.911Z,25.02
2022-12-28T14:25:08.275Z,23.77
2022-12-28T14:27:09.944Z,18.65
2022-12-28T14:29:21.074Z,22.67
2022-12-28T14:31:28.161Z,21.48
2022-12-28T14:33:33.963Z,19.20
2022-12-28T14:35:35.544Z,20.98
2022-12-28T14:37:40.530Z,24.42
2022-12-28T14:39:45.037Z,16.67
2022-12-28T14:41:46.872Z,19.90
2022-12-28T14:43:58.187Z,22.63
2022-12-28T14:46:17.055Z,21.27
2022-12-28T14:48:37.675Z,29.85
2022-12-28T14:50:55.722Z,24.70
2022-12-28T14:53:19.024Z,27.58
2022-12-28T14:55:23.724Z,29.42
2022-12-28T14:57:34.159Z,36.38
2022-12-28T14:59:42.999Z,32.90
2022-12-28T15:01:46.516Z,29.30
2022-12-28T15:04:13.019Z,21.33
2022-12-28T15:06:15.244Z,28.30
2022-12-28T15:08:19.411Z,43.22
2022-12-28T15:10:20.943Z,29.05
2022-12-28T15:12:23.189Z,29.42
2022-12-28T15:14:25.379Z,28.48
2022-12-28T15:16:27.039Z,36.25
2022-12-28T15:18:30.662Z,28.30
2022-12-28T15:20:32.500Z,48.83
2022-12-28T15:22:34.199Z,37.95
2022-12-28T15:24:36.062Z,40.53
2022-12-28T15:26:37.566Z,59.75
2022-12-28T15:28:39.800Z,86.53
2022-12-28T15:30:43.046Z,82.43
2022-12-28T15:32:44.989Z,38.28
2022-12-28T15:34:46.555Z,39.65
2022-12-28T15:36:48.097Z,35.85
2022-12-28T15:38:49.718Z,42.58
2022-12-28T15:40:55.310Z,15.77
2022-12-28T15:42:56.947Z,24.15
2022-12-28T15:44:58.559Z,29.58
2022-12-28T15:47:00.247Z,55.25
2022-12-28T15:49:02.661Z,37.50
2022-12-28T15:51:04.271Z,28.85
2022-12-28T15:53:05.786Z,30.83
2022-12-28T15:55:07.620Z,28.02
2022-12-28T15:57:10.866Z,25.35
2022-12-28T15:59:14.324Z,25.27
2022-12-28T16:01:16.000Z,38.70
2022-12-28T16:03:17.751Z,22.10
2022-12-28T16:05:19.405Z,24.55
2022-12-28T16:07:21.000Z,18.55
2022-12-28T16:09:22.690Z,19.38
2022-12-28T16:11:24.690Z,22.70
2022-12-28T16:13:26.181Z,14.48
2022-12-28T16:15:28.147Z,18.92
2022-12-28T16:17:30.002Z,22.45
2022-12-28T16:19:31.582Z,20.98
2022-12-28T16:21:33.548Z,21.45
2022-12-28T16:23:38.030Z,26.00
2022-12-28T16:25:39.555Z,24.63
2022-12-28T16:27:41.106Z,31.13
2022-12-28T16:29:42.867Z,31.98
2022-12-28T16:31:44.456Z,19.75
2022-12-28T16:33:45.993Z,33.95
2022-12-28T16:35:50.872Z,24.98
2022-12-28T16:37:55.990Z,21.08
2022-12-28T16:39:57.503Z,23.73
2022-12-28T16:41:59.523Z,18.08
2022-12-28T16:44:03.624Z,24.15
2022-12-28T16:46:07.389Z,20.48
2022-12-28T16:48:12.106Z,19.95
2022-12-28T16:50:16.525Z,27.38
2022-12-28T16:52:18.050Z,23.02
2022-12-28T16:54:22.154Z,25.40
2022-12-28T16:56:24.163Z,27.60
2022-12-28T16:58:25.664Z,22.83
2022-12-28T17:00:27.162Z,25.52
2022-12-28T17:02:28.856Z,26.95
2022-12-28T17:04:30.632Z,28.35
2022-12-28T17:06:32.220Z,27.80
2022-12-28T17:08:36.757Z,22.52
2022-12-28T17:10:41.610Z,25.25
2022-12-28T17:12:43.167Z,21.23
2022-12-28T17:14:44.706Z,17.40
2022-12-28T17:16:46.282Z,28.83
2022-12-28T17:18:47.824Z,26.17
2022-12-28T17:20:50.946Z,25.75
2022-12-28T17:22:52.485Z,32.60
2022-12-28T17:24:53.993Z,30.75
2022-12-28T17:26:56.269Z,28.77
2022-12-28T17:28:59.296Z,34.38
2022-12-28T17:31:14.367Z,44.90
2022-12-28T17:33:16.629Z,34.38
2022-12-28T17:35:18.151Z,35.67
2022-12-28T17:37:19.702Z,41.53
2022-12-28T17:39:21.695Z,33.78
2022-12-28T17:41:26.574Z,31.45
2022-12-28T17:43:28.534Z,34.17
2022-12-28T17:45:30.075Z,33.60
2022-12-28T17:47:31.819Z,34.53
2022-12-28T17:49:34.396Z,52.58
2022-12-28T17:51:35.925Z,55.80
2022-12-28T17:53:37.658Z,58.72
2022-12-28T17:55:39.218Z,57.42
2022-12-28T17:57:40.767Z,46.35
2022-12-28T17:59:42.568Z,43.50
2022-12-28T18:01:44.531Z,31.52
2022-12-28T18:03:46.598Z,29.23
2022-12-28T18:05:49.228Z,35.55
2022-12-28T18:07:50.754Z,28.50
2022-12-28T18:09:52.252Z,31.90
2022-12-28T18:11:53.814Z,35.38
2022-12-28T18:13:58.919Z,29.85
2022-12-28T18:16:03.049Z,27.80
2022-12-28T18:18:05.350Z,29.73
2022-12-28T18:20:07.540Z,31.90
2022-12-28T18:22:09.082Z,28.27
2022-12-28T18:24:14.142Z,31.73
2022-12-28T18:26:18.421Z,30.70
2022-12-28T18:28:20.368Z,39.70
2022-12-28T18:30:22.149Z,29.65
2022-12-28T18:32:23.891Z,34.08
2022-12-28T18:34:25.469Z,31.05
2022-12-28T18:36:26.984Z,35.40
2022-12-28T18:38:28.671Z,35.47
2022-12-28T18:40:30.264Z,31.50
2022-12-28T18:42:31.804Z,33.78
2022-12-28T18:44:33.418Z,38.60
2022-12-28T18:46:35.059Z,43.72
2022-12-28T18:48:38.616Z,124.13
2022-12-28T18:50:40.114Z,46.53
2022-12-28T18:52:41.740Z,50.92
2022-12-28T18:54:43.266Z,112.05
2022-12-28T18:56:44.798Z,43.75
2022-12-28T18:58:51.555Z,65.63
2022-12-28T19:00:53.145Z,48.50
2022-12-28T19:02:54.885Z,47.25
2022-12-28T19:04:56.599Z,78.88
2022-12-28T19:06:58.228Z,56.58
2022-12-28T19:09:00.526Z,56.90
2022-12-28T19:11:02.594Z,64.22
2022-12-28T19:13:04.115Z,37.00
2022-12-28T19:15:06.506Z,42.70
2022-12-28T19:17:08.041Z,32.80
2022-12-28T19:19:09.699Z,33.97
2022-12-28T19:21:25.891Z,22.92
2022-12-28T19:23:27.434Z,31.08
2022-12-28T19:25:29.026Z,32.75
2022-12-28T19:27:30.640Z,40.75
2022-12-28T19:29:32.418Z,15.63
2022-12-28T19:31:34.367Z,16.38
2022-12-28T19:33:36.122Z,13.73
2022-12-28T19:35:37.631Z,15.95
2022-12-28T19:37:39.263Z,25.98
2022-12-28T19:39:41.000Z,18.30
2022-12-28T19:41:42.553Z,39.90
2022-12-28T19:43:44.386Z,46.45
2022-12-28T19:45:45.916Z,36.85
2022-12-28T19:47:47.472Z,30.98
2022-12-28T19:49:49.113Z,31.15
2022-12-28T19:51:50.640Z,26.92
2022-12-28T19:53:55.203Z,34.17
2022-12-28T19:56:08.494Z,37.88
2022-12-28T19:58:10.032Z,16.27
2022-12-28T20:00:12.404Z,16.35
2022-12-28T20:02:14.049Z,16.02
2022-12-28T20:04:15.780Z,25.40
2022-12-28T20:06:18.727Z,28.25
2022-12-28T20:08:20.353Z,19.63
2022-12-28T20:10:21.999Z,17.75
2022-12-28T20:12:23.661Z,21.70
2022-12-28T20:14:25.443Z,21.70
2022-12-28T20:16:29.312Z,17.63
2022-12-28T20:18:31.092Z,19.73
2022-12-28T20:20:45.918Z,21.75
2022-12-28T20:22:54.150Z,24.88
2022-12-28T20:24:55.713Z,28.95
2022-12-28T20:27:01.483Z,23.98
2022-12-28T20:29:05.161Z,23.48
2022-12-28T20:31:08.983Z,32.10
2022-12-28T20:33:10.610Z,22.45
2022-12-28T20:35:12.483Z,24.70
2022-12-28T20:37:14.052Z,32.72
2022-12-28T20:39:15.596Z,29.08
2022-12-28T20:41:48.516Z,28.33
2022-12-28T20:43:50.061Z,24.30
2022-12-28T20:45:54.360Z,28.88
2022-12-28T20:47:56.087Z,35.60
2022-12-28T20:49:57.646Z,41.83
2022-12-28T20:51:59.280Z,23.60
2022-12-28T20:54:01.592Z,27.80
2022-12-28T20:56:07.553Z,36.20
2022-12-28T20:58:09.295Z,33.13
2022-12-28T21:00:11.387Z,41.58
2022-12-28T21:02:13.303Z,42.08
2022-12-28T21:04:15.060Z,26.45
2022-12-28T21:06:16.680Z,36.67
2022-12-28T21:08:18.194Z,33.42
2022-12-28T21:10:19.753Z,57.20
2022-12-28T21:12:21.363Z,55.63
2022-12-28T21:14:22.977Z,46.53
2022-12-28T21:16:24.740Z,36.65
2022-12-28T21:18:26.252Z,35.63
2022-12-28T21:20:29.417Z,36.60
2022-12-28T21:22:33.193Z,32.45
2022-12-28T21:24:34.910Z,30.02
2022-12-28T21:26:37.218Z,29.60
2022-12-28T21:28:38.864Z,23.45
2022-12-28T21:30:40.556Z,28.45
2022-12-28T21:32:42.085Z,23.00
2022-12-28T21:34:43.606Z,27.05
2022-12-28T21:36:45.183Z,24.45
2022-12-28T21:38:48.324Z,25.45
2022-12-28T21:41:05.687Z,26.08
2022-12-28T21:43:07.263Z,27.77
2022-12-28T21:45:09.538Z,24.10
2022-12-28T21:47:11.055Z,21.73
2022-12-28T21:49:13.086Z,31.25
2022-12-28T21:51:31.165Z,25.70
2022-12-28T21:53:32.948Z,21.92
2022-12-28T21:55:44.217Z,17.08
2022-12-28T21:57:52.789Z,27.27
2022-12-28T21:59:55.138Z,20.98
2022-12-28T22:02:15.190Z,25.67
2022-12-28T22:04:37.831Z,21.10
2022-12-28T22:06:39.406Z,22.58
2022-12-28T22:08:59.284Z,19.15
2022-12-28T22:11:19.423Z,26.67
2022-12-28T22:13:20.994Z,25.75
2022-12-28T22:15:44.168Z,23.73
2022-12-28T22:17:46.883Z,23.42
2022-12-28T22:19:48.515Z,17.60
2022-12-28T22:21:50.431Z,16.23
2022-12-28T22:23:52.009Z,17.10
2022-12-28T22:25:53.560Z,20.83
2022-12-28T22:27:55.959Z,22.25
2022-12-28T22:29:57.514Z,13.68
2022-12-28T22:31:59.126Z,12.85
2022-12-28T22:34:06.810Z,14.98
2022-12-28T22:36:19.115Z,14.95
2022-12-28T22:38:20.662Z,18.20
2022-12-28T22:40:22.613Z,15.57
2022-12-28T22:42:24.210Z,16.20
2022-12-28T22:44:25.744Z,19.67
2022-12-28T22:46:27.305Z,15.57
2022-12-28T22:48:29.184Z,14.48
2022-12-28T22:50:30.713Z,17.83
2022-12-28T22:52:32.317Z,15.98
2022-12-28T22:54:33.890Z,15.10
2022-12-28T22:56:35.398Z,23.67
2022-12-28T22:58:37.056Z,18.65
2022-12-28T23:00:38.596Z,16.20
2022-12-28T23:02:40.525Z,15.57
2022-12-28T23:04:42.235Z,18.92
2022-12-28T23:06:43.854Z,20.90
2022-12-28T23:08:46.322Z,15.05
2022-12-28T23:10:59.879Z,19.40
2022-12-28T23:13:01.411Z,19.40
2022-12-28T23:15:21.718Z,15.85
2022-12-28T23:17:24.023Z,16.50
2022-12-28T23:19:44.706Z,16.85
2022-12-28T23:22:04.648Z,11.38
2022-12-28T23:24:29.640Z,17.15
2022-12-28T23:26:49.505Z,11.05
2022-12-28T23:28:51.022Z,14.60
2022-12-28T23:30:53.147Z,18.83
2022-12-28T23:32:55.783Z,21.42
2022-12-28T23:34:57.366Z,28.38
2022-12-28T23:36:58.932Z,18.85
2022-12-28T23:39:00.571Z,15.32
2022-12-28T23:41:24.553Z,17.33
2022-12-28T23:43:26.157Z,19.65
2022-12-28T23:45:27.757Z,18.95
2022-12-28T23:47:30.322Z,20.60
2022-12-28T23:49:31.853Z,17.80
2022-12-28T23:51:33.603Z,16.92
2022-12-28T23:53:35.316Z,21.10
2022-12-28T23:55:36.888Z,18.42
2022-12-28T23:57:38.567Z,23.17
2022-12-28T23:59:40.117Z,46.83
